createdAt,value
2023-04-02T00:00:16.468Z,481.00
2023-04-02T00:01:15.652Z,481.00
2023-04-02T00:02:15.702Z,486.00
2023-04-02T00:03:15.760Z,489.00
2023-04-02T00:04:15.787Z,492.00
2023-04-02T00:05:15.826Z,489.00
2023-04-02T00:06:15.874Z,486.00
2023-04-02T00:07:15.940Z,486.00
2023-04-02T00:08:15.986Z,484.00
2023-04-02T00:09:16.047Z,483.00
2023-04-02T00:10:16.103Z,485.00
2023-04-02T00:11:16.153Z,484.00
2023-04-02T00:12:16.214Z,485.00
2023-04-02T00:13:17.068Z,486.00
2023-04-02T00:14:16.392Z,486.00
2023-04-02T00:15:16.378Z,486.00
2023-04-02T00:16:16.451Z,486.00
2023-04-02T00:17:16.502Z,481.00
2023-04-02T00:18:16.613Z,480.00
2023-04-02T00:19:16.611Z,479.00
2023-04-02T00:20:16.680Z,477.00
2023-04-02T00:21:17.486Z,476.00
2023-04-02T00:22:16.795Z,478.00
2023-04-02T00:23:17.480Z,478.00
2023-04-02T00:24:16.913Z,479.00
2023-04-02T00:25:16.958Z,484.00
2023-04-02T00:26:17.034Z,483.00
2023-04-02T00:27:17.088Z,485.00
2023-04-02T00:28:17.147Z,484.00
2023-04-02T00:29:17.204Z,483.00
2023-04-02T00:30:17.264Z,480.00
2023-04-02T00:31:17.326Z,481.00
2023-04-02T00:32:17.440Z,482.00
2023-04-02T00:33:17.501Z,478.00
2023-04-02T00:34:17.513Z,477.00
2023-04-02T00:35:17.573Z,478.00
2023-04-02T00:36:17.671Z,480.00
2023-04-02T00:37:17.832Z,482.00
2023-04-02T00:38:17.747Z,483.00
2023-04-02T00:39:17.818Z,484.00
2023-04-02T00:40:17.868Z,483.00
2023-04-02T00:41:18.000Z,484.00
2023-04-02T00:42:17.980Z,487.00
2023-04-02T00:43:18.039Z,487.00
2023-04-02T00:44:18.105Z,486.00
2023-04-02T00:45:18.162Z,486.00
2023-04-02T00:46:18.278Z,488.00
2023-04-02T00:47:18.283Z,487.00
2023-04-02T00:48:18.343Z,483.00
2023-04-02T00:49:18.410Z,482.00
2023-04-02T00:50:18.473Z,480.00
2023-04-02T00:51:18.532Z,481.00
2023-04-02T00:52:18.594Z,480.00
2023-04-02T00:53:18.656Z,478.00
2023-04-02T00:54:18.721Z,479.00
2023-04-02T00:55:21.497Z,479.00
2023-04-02T00:56:18.774Z,478.00
2023-04-02T00:57:18.805Z,479.00
2023-04-02T00:58:18.751Z,480.00
2023-04-02T00:59:18.736Z,479.00
2023-04-02T01:00:18.736Z,479.00
2023-04-02T01:01:18.762Z,479.00
2023-04-02T01:02:18.792Z,478.00
2023-04-02T01:03:18.831Z,479.00
2023-04-02T01:04:18.696Z,479.00
2023-04-02T01:05:18.676Z,478.00
2023-04-02T01:06:18.661Z,483.00
2023-04-02T01:07:18.656Z,482.00
2023-04-02T01:08:18.689Z,485.00
2023-04-02T01:09:18.634Z,486.00
2023-04-02T01:10:18.642Z,485.00
2023-04-02T01:11:18.622Z,486.00
2023-04-02T01:12:18.629Z,483.00
2023-04-02T01:13:18.589Z,483.00
2023-04-02T01:14:18.575Z,482.00
2023-04-02T01:15:18.576Z,484.00
2023-04-02T01:16:18.581Z,483.00
2023-04-02T01:17:18.588Z,482.00
2023-04-02T01:18:18.533Z,480.00
2023-04-02T01:19:18.513Z,483.00
2023-04-02T01:20:18.509Z,486.00
2023-04-02T01:21:18.500Z,487.00
2023-04-02T01:22:18.500Z,487.00
2023-04-02T01:23:18.489Z,487.00
2023-04-02T01:24:18.482Z,485.00
2023-04-02T01:25:18.461Z,486.00
2023-04-02T01:26:18.455Z,489.00
2023-04-02T01:27:18.442Z,490.00
2023-04-02T01:28:18.443Z,489.00
2023-04-02T01:29:18.466Z,487.00
2023-04-02T01:30:18.407Z,488.00
2023-04-02T01:31:18.428Z,485.00
2023-04-02T01:32:18.405Z,486.00
2023-04-02T01:33:18.434Z,485.00
2023-04-02T01:34:18.543Z,486.00
2023-04-02T01:35:18.540Z,484.00
2023-04-02T01:36:18.597Z,485.00
2023-04-02T01:37:18.656Z,484.00
2023-04-02T01:38:18.703Z,486.00
2023-04-02T01:39:18.755Z,485.00
2023-04-02T01:40:18.813Z,484.00
2023-04-02T01:41:18.863Z,482.00
2023-04-02T01:42:18.941Z,483.00
2023-04-02T01:43:18.979Z,483.00
2023-04-02T01:44:19.084Z,485.00
2023-04-02T01:45:19.085Z,488.00
2023-04-02T01:46:19.169Z,485.00
2023-04-02T01:47:19.247Z,486.00
2023-04-02T01:48:19.266Z,482.00
2023-04-02T01:49:20.006Z,482.00
2023-04-02T01:50:19.476Z,481.00
2023-04-02T01:51:19.442Z,480.00
2023-04-02T01:52:19.513Z,483.00
2023-04-02T01:53:19.525Z,481.00
2023-04-02T01:54:20.510Z,481.00
2023-04-02T01:55:19.624Z,482.00
2023-04-02T01:56:19.620Z,483.00
2023-04-02T01:57:19.744Z,487.00
2023-04-02T01:58:19.683Z,487.00
2023-04-02T01:59:19.734Z,484.00
2023-04-02T02:00:19.775Z,484.00
2023-04-02T02:01:20.027Z,483.00
2023-04-02T02:02:19.865Z,485.00
2023-04-02T02:03:19.920Z,484.00
2023-04-02T02:04:19.893Z,485.00
2023-04-02T02:05:19.913Z,486.00
2023-04-02T02:06:19.941Z,486.00
2023-04-02T02:07:19.981Z,486.00
2023-04-02T02:08:20.531Z,486.00
2023-04-02T02:09:20.048Z,485.00
2023-04-02T02:10:20.107Z,486.00
2023-04-02T02:11:20.174Z,488.00
2023-04-02T02:12:20.160Z,486.00
2023-04-02T02:13:20.189Z,486.00
2023-04-02T02:14:21.019Z,486.00
2023-04-02T02:15:20.289Z,487.00
2023-04-02T02:16:20.405Z,484.00
2023-04-02T02:17:20.400Z,485.00
2023-04-02T02:18:20.446Z,487.00
2023-04-02T02:19:20.484Z,485.00
2023-04-02T02:20:20.527Z,482.00
2023-04-02T02:21:20.567Z,480.00
2023-04-02T02:22:20.629Z,482.00
2023-04-02T02:23:20.646Z,480.00
2023-04-02T02:24:20.718Z,483.00
2023-04-02T02:25:20.708Z,483.00
2023-04-02T02:26:20.736Z,485.00
2023-04-02T02:27:20.757Z,483.00
2023-04-02T02:28:20.791Z,479.00
2023-04-02T02:29:20.836Z,478.00
2023-04-02T02:30:20.878Z,478.00
2023-04-02T02:31:20.910Z,477.00
2023-04-02T02:32:20.985Z,477.00
2023-04-02T02:33:20.973Z,478.00
2023-04-02T02:34:20.998Z,479.00
2023-04-02T02:35:21.036Z,481.00
2023-04-02T02:36:21.135Z,481.00
2023-04-02T02:37:22.031Z,480.00
2023-04-02T02:38:21.147Z,480.00
2023-04-02T02:39:21.198Z,480.00
2023-04-02T02:40:21.229Z,478.00
2023-04-02T02:41:21.278Z,475.00
2023-04-02T02:42:21.302Z,476.00
2023-04-02T02:43:21.354Z,477.00
2023-04-02T02:44:21.401Z,479.00
2023-04-02T02:45:21.447Z,479.00
2023-04-02T02:46:21.514Z,481.00
2023-04-02T02:47:21.560Z,483.00
2023-04-02T02:48:21.561Z,482.00
2023-04-02T02:49:21.630Z,485.00
2023-04-02T02:50:21.650Z,486.00
2023-04-02T02:51:21.695Z,481.00
2023-04-02T02:52:21.737Z,480.00
2023-04-02T02:53:21.800Z,482.00
2023-04-02T02:54:21.834Z,484.00
2023-04-02T02:55:21.870Z,484.00
2023-04-02T02:56:21.893Z,486.00
2023-04-02T02:57:21.946Z,487.00
2023-04-02T02:58:21.965Z,485.00
2023-04-02T02:59:21.991Z,484.00
2023-04-02T03:00:22.037Z,482.00
2023-04-02T03:01:22.095Z,482.00
2023-04-02T03:02:22.169Z,481.00
2023-04-02T03:03:22.288Z,480.00
2023-04-02T03:04:22.193Z,479.00
2023-04-02T03:05:22.224Z,483.00
2023-04-02T03:06:22.243Z,484.00
2023-04-02T03:07:22.272Z,482.00
2023-04-02T03:08:22.305Z,484.00
2023-04-02T03:09:22.339Z,487.00
2023-04-02T03:10:22.379Z,488.00
2023-04-02T03:11:22.398Z,488.00
2023-04-02T03:12:22.435Z,488.00
2023-04-02T03:13:22.473Z,488.00
2023-04-02T03:14:22.496Z,488.00
2023-04-02T03:15:22.517Z,488.00
2023-04-02T03:16:22.702Z,488.00
2023-04-02T03:17:22.584Z,488.00
2023-04-02T03:18:22.593Z,486.00
2023-04-02T03:19:22.621Z,488.00
2023-04-02T03:20:22.653Z,486.00
2023-04-02T03:21:22.679Z,484.00
2023-04-02T03:22:22.733Z,482.00
2023-04-02T03:23:22.762Z,484.00
2023-04-02T03:24:22.793Z,483.00
2023-04-02T03:25:22.844Z,483.00
2023-04-02T03:26:22.892Z,484.00
2023-04-02T03:27:22.929Z,481.00
2023-04-02T03:28:22.963Z,481.00
2023-04-02T03:29:22.980Z,482.00
2023-04-02T03:30:23.011Z,481.00
2023-04-02T03:31:23.053Z,480.00
2023-04-02T03:32:23.058Z,478.00
2023-04-02T03:33:23.096Z,479.00
2023-04-02T03:34:23.119Z,482.00
2023-04-02T03:35:23.187Z,481.00
2023-04-02T03:36:23.237Z,481.00
2023-04-02T03:37:23.239Z,481.00
2023-04-02T03:38:23.319Z,478.00
2023-04-02T03:39:23.337Z,476.00
2023-04-02T03:40:23.364Z,476.00
2023-04-02T03:41:23.412Z,475.00
2023-04-02T03:42:23.453Z,475.00
2023-04-02T03:43:23.493Z,474.00
2023-04-02T03:44:23.541Z,473.00
2023-04-02T03:45:23.568Z,475.00
2023-04-02T03:46:23.705Z,477.00
2023-04-02T03:47:23.694Z,479.00
2023-04-02T03:48:23.706Z,478.00
2023-04-02T03:49:23.746Z,478.00
2023-04-02T03:50:23.784Z,478.00
2023-04-02T03:51:23.816Z,479.00
2023-04-02T03:52:23.863Z,481.00
2023-04-02T03:53:23.895Z,479.00
2023-04-02T03:54:23.958Z,478.00
2023-04-02T03:55:24.012Z,480.00
2023-04-02T03:56:24.021Z,483.00
2023-04-02T03:57:24.105Z,482.00
2023-04-02T03:58:24.094Z,482.00
2023-04-02T03:59:24.124Z,478.00
2023-04-02T04:00:24.175Z,476.00
2023-04-02T04:01:24.242Z,476.00
2023-04-02T04:02:24.387Z,476.00
2023-04-02T04:03:24.285Z,476.00
2023-04-02T04:04:24.345Z,478.00
2023-04-02T04:05:24.347Z,477.00
2023-04-02T04:06:24.391Z,480.00
2023-04-02T04:07:24.431Z,481.00
2023-04-02T04:08:24.462Z,483.00
2023-04-02T04:09:24.491Z,481.00
2023-04-02T04:10:24.532Z,482.00
2023-04-02T04:11:24.602Z,482.00
2023-04-02T04:12:24.594Z,480.00
2023-04-02T04:13:24.628Z,480.00
2023-04-02T04:14:24.660Z,480.00
2023-04-02T04:15:24.699Z,479.00
2023-04-02T04:16:24.766Z,480.00
2023-04-02T04:17:24.875Z,480.00
2023-04-02T04:18:24.789Z,481.00
2023-04-02T04:19:24.807Z,479.00
2023-04-02T04:20:24.901Z,477.00
2023-04-02T04:21:24.902Z,479.00
2023-04-02T04:22:24.912Z,481.00
2023-04-02T04:23:24.952Z,480.00
2023-04-02T04:24:24.972Z,480.00
2023-04-02T04:25:24.988Z,479.00
2023-04-02T04:26:25.025Z,479.00
2023-04-02T04:27:25.045Z,481.00
2023-04-02T04:28:25.082Z,481.00
2023-04-02T04:29:25.108Z,481.00
2023-04-02T04:30:25.150Z,479.00
2023-04-02T04:31:26.101Z,476.00
2023-04-02T04:32:25.242Z,477.00
2023-04-02T04:33:25.260Z,477.00
2023-04-02T04:34:25.315Z,475.00
2023-04-02T04:35:25.327Z,472.00
2023-04-02T04:36:25.357Z,470.00
2023-04-02T04:37:25.381Z,470.00
2023-04-02T04:38:25.419Z,470.00
2023-04-02T04:39:25.452Z,473.00
2023-04-02T04:40:25.482Z,473.00
2023-04-02T04:41:25.526Z,477.00
2023-04-02T04:42:25.612Z,476.00
2023-04-02T04:43:25.604Z,473.00
2023-04-02T04:44:25.625Z,470.00
2023-04-02T04:45:25.672Z,470.00
2023-04-02T04:46:25.809Z,470.00
2023-04-02T04:47:26.671Z,474.00
2023-04-02T04:48:25.758Z,471.00
2023-04-02T04:49:25.778Z,469.00
2023-04-02T04:50:25.819Z,471.00
2023-04-02T04:51:25.864Z,472.00
2023-04-02T04:52:25.917Z,472.00
2023-04-02T04:53:25.918Z,471.00
2023-04-02T04:54:25.963Z,472.00
2023-04-02T04:55:25.990Z,468.00
2023-04-02T04:56:26.030Z,465.00
2023-04-02T04:57:26.198Z,467.00
2023-04-02T04:58:26.101Z,468.00
2023-04-02T04:59:26.134Z,472.00
2023-04-02T05:00:26.170Z,474.00
2023-04-02T05:01:26.253Z,472.00
2023-04-02T05:02:26.292Z,471.00
2023-04-02T05:03:26.296Z,469.00
2023-04-02T05:04:26.408Z,470.00
2023-04-02T05:05:27.077Z,471.00
2023-04-02T05:06:26.591Z,472.00
2023-04-02T05:07:26.446Z,471.00
2023-04-02T05:08:26.486Z,471.00
2023-04-02T05:09:26.535Z,473.00
2023-04-02T05:10:26.564Z,471.00
2023-04-02T05:11:26.600Z,470.00
2023-04-02T05:12:26.636Z,473.00
2023-04-02T05:13:26.664Z,474.00
2023-04-02T05:14:26.683Z,475.00
2023-04-02T05:15:26.710Z,474.00
2023-04-02T05:16:26.777Z,474.00
2023-04-02T05:17:26.860Z,472.00
2023-04-02T05:18:26.816Z,471.00
2023-04-02T05:19:27.586Z,475.00
2023-04-02T05:20:26.881Z,475.00
2023-04-02T05:21:26.895Z,472.00
2023-04-02T05:22:26.918Z,469.00
2023-04-02T05:23:26.976Z,472.00
2023-04-02T05:24:26.995Z,474.00
2023-04-02T05:25:27.055Z,475.00
2023-04-02T05:26:27.061Z,473.00
2023-04-02T05:27:27.111Z,473.00
2023-04-02T05:28:27.137Z,478.00
2023-04-02T05:29:27.175Z,481.00
2023-04-02T05:30:27.215Z,478.00
2023-04-02T05:31:27.312Z,474.00
2023-04-02T05:32:27.279Z,469.00
2023-04-02T05:33:27.317Z,471.00
2023-04-02T05:34:27.358Z,470.00
2023-04-02T05:35:27.400Z,472.00
2023-04-02T05:36:27.472Z,471.00
2023-04-02T05:37:27.513Z,469.00
2023-04-02T05:38:27.612Z,470.00
2023-04-02T05:39:27.656Z,469.00
2023-04-02T05:40:27.685Z,468.00
2023-04-02T05:41:27.675Z,468.00
2023-04-02T05:42:27.734Z,472.00
2023-04-02T05:43:27.710Z,472.00
2023-04-02T05:44:27.827Z,471.00
2023-04-02T05:45:27.853Z,471.00
2023-04-02T05:46:27.827Z,471.00
2023-04-02T05:47:27.891Z,472.00
2023-04-02T05:48:27.914Z,473.00
2023-04-02T05:49:27.932Z,474.00
2023-04-02T05:50:27.972Z,471.00
2023-04-02T05:51:28.003Z,472.00
2023-04-02T05:52:28.065Z,471.00
2023-04-02T05:53:28.090Z,472.00
2023-04-02T05:54:28.607Z,473.00
2023-04-02T05:55:28.175Z,474.00
2023-04-02T05:56:28.210Z,472.00
2023-04-02T05:57:42.706Z,472.00
2023-04-02T05:58:35.337Z,470.00
2023-04-02T05:59:29.240Z,468.00
2023-04-02T06:00:28.243Z,468.00
2023-04-02T06:01:28.249Z,467.00
2023-04-02T06:02:28.381Z,466.00
2023-04-02T06:03:28.287Z,467.00
2023-04-02T06:04:28.224Z,467.00
2023-04-02T06:05:28.223Z,466.00
2023-04-02T06:06:28.237Z,467.00
2023-04-02T06:07:28.231Z,468.00
2023-04-02T06:08:28.219Z,468.00
2023-04-02T06:09:28.218Z,468.00
2023-04-02T06:10:28.215Z,469.00
2023-04-02T06:11:29.107Z,468.00
2023-04-02T06:12:28.210Z,468.00
2023-04-02T06:13:28.208Z,471.00
2023-04-02T06:14:28.196Z,473.00
2023-04-02T06:15:28.201Z,473.00
2023-04-02T06:16:28.228Z,473.00
2023-04-02T06:17:28.215Z,473.00
2023-04-02T06:18:28.193Z,473.00
2023-04-02T06:19:28.191Z,473.00
2023-04-02T06:20:28.264Z,474.00
2023-04-02T06:21:28.189Z,472.00
2023-04-02T06:22:28.196Z,471.00
2023-04-02T06:23:28.192Z,471.00
2023-04-02T06:24:28.194Z,471.00
2023-04-02T06:25:28.212Z,471.00
2023-04-02T06:26:28.209Z,467.00
2023-04-02T06:27:28.190Z,467.00
2023-04-02T06:28:28.201Z,468.00
2023-04-02T06:29:28.191Z,471.00
2023-04-02T06:30:28.286Z,472.00
2023-04-02T06:31:29.124Z,472.00
2023-04-02T06:32:28.353Z,475.00
2023-04-02T06:33:28.253Z,472.00
2023-04-02T06:34:28.287Z,470.00
2023-04-02T06:35:28.329Z,472.00
2023-04-02T06:36:28.377Z,470.00
2023-04-02T06:37:28.400Z,471.00
2023-04-02T06:38:28.622Z,469.00
2023-04-02T06:39:28.485Z,470.00
2023-04-02T06:40:28.548Z,472.00
2023-04-02T06:41:28.566Z,471.00
2023-04-02T06:42:28.612Z,474.00
2023-04-02T06:43:28.641Z,477.00
2023-04-02T06:44:28.686Z,477.00
2023-04-02T06:45:28.748Z,477.00
2023-04-02T06:46:28.870Z,477.00
2023-04-02T06:47:28.862Z,478.00
2023-04-02T06:48:28.841Z,479.00
2023-04-02T06:49:28.862Z,478.00
2023-04-02T06:50:28.908Z,480.00
2023-04-02T06:51:29.018Z,477.00
2023-04-02T06:52:29.061Z,480.00
2023-04-02T06:53:29.119Z,478.00
2023-04-02T06:54:29.161Z,476.00
2023-04-02T06:55:30.187Z,474.00
2023-04-02T06:56:29.265Z,473.00
2023-04-02T06:57:29.366Z,475.00
2023-04-02T06:58:29.361Z,476.00
2023-04-02T06:59:29.400Z,476.00
2023-04-02T07:00:29.435Z,478.00
2023-04-02T07:01:29.511Z,478.00
2023-04-02T07:02:29.521Z,477.00
2023-04-02T07:03:29.534Z,477.00
2023-04-02T07:04:29.591Z,473.00
2023-04-02T07:05:29.536Z,472.00
2023-04-02T07:06:29.597Z,472.00
2023-04-02T07:07:29.537Z,471.00
2023-04-02T07:08:29.536Z,469.00
2023-04-02T07:09:29.516Z,470.00
2023-04-02T07:10:29.514Z,469.00
2023-04-02T07:11:29.498Z,469.00
2023-04-02T07:12:29.483Z,472.00
2023-04-02T07:13:29.503Z,473.00
2023-04-02T07:14:29.524Z,473.00
2023-04-02T07:15:29.572Z,474.00
2023-04-02T07:16:29.613Z,476.00
2023-04-02T07:17:29.673Z,476.00
2023-04-02T07:18:29.742Z,475.00
2023-04-02T07:19:29.743Z,477.00
2023-04-02T07:20:29.803Z,478.00
2023-04-02T07:21:29.870Z,477.00
2023-04-02T07:22:29.882Z,477.00
2023-04-02T07:23:29.914Z,473.00
2023-04-02T07:24:29.934Z,471.00
2023-04-02T07:25:29.967Z,471.00
2023-04-02T07:26:29.973Z,471.00
2023-04-02T07:27:29.997Z,471.00
2023-04-02T07:28:30.013Z,471.00
2023-04-02T07:29:30.024Z,469.00
2023-04-02T07:30:30.023Z,469.00
2023-04-02T07:31:30.060Z,472.00
2023-04-02T07:32:30.081Z,474.00
2023-04-02T07:33:30.029Z,472.00
2023-04-02T07:34:30.013Z,473.00
2023-04-02T07:35:30.000Z,472.00
2023-04-02T07:36:30.009Z,471.00
2023-04-02T07:37:29.994Z,472.00
2023-04-02T07:38:29.998Z,472.00
2023-04-02T07:39:29.968Z,468.00
2023-04-02T07:40:29.965Z,465.00
2023-04-02T07:41:29.942Z,468.00
2023-04-02T07:42:29.927Z,466.00
2023-04-02T07:43:29.911Z,468.00
2023-04-02T07:44:29.901Z,468.00
2023-04-02T07:45:29.907Z,468.00
2023-04-02T07:46:29.953Z,467.00
2023-04-02T07:47:29.960Z,464.00
2023-04-02T07:48:30.000Z,463.00
2023-04-02T07:49:29.986Z,461.00
2023-04-02T07:50:30.020Z,459.00
2023-04-02T07:51:30.046Z,462.00
2023-04-02T07:52:30.086Z,462.00
2023-04-02T07:53:30.248Z,462.00
2023-04-02T07:54:30.187Z,463.00
2023-04-02T07:55:30.208Z,463.00
2023-04-02T07:56:30.249Z,464.00
2023-04-02T07:57:30.418Z,465.00
2023-04-02T07:58:30.654Z,468.00
2023-04-02T07:59:30.418Z,469.00
2023-04-02T08:00:30.481Z,468.00
2023-04-02T08:01:30.496Z,467.00
2023-04-02T08:02:30.613Z,466.00
2023-04-02T08:03:30.678Z,469.00
2023-04-02T08:04:30.598Z,467.00
2023-04-02T08:05:30.650Z,467.00
2023-04-02T08:06:30.708Z,466.00
2023-04-02T08:07:30.745Z,466.00
2023-04-02T08:08:30.848Z,464.00
2023-04-02T08:09:30.831Z,464.00
2023-04-02T08:10:30.853Z,463.00
2023-04-02T08:11:31.827Z,463.00
2023-04-02T08:12:30.961Z,461.00
2023-04-02T08:13:30.988Z,464.00
2023-04-02T08:14:31.031Z,466.00
2023-04-02T08:15:31.065Z,466.00
2023-04-02T08:16:31.130Z,468.00
2023-04-02T08:17:31.256Z,468.00
2023-04-02T08:18:31.179Z,466.00
2023-04-02T08:19:31.910Z,464.00
2023-04-02T08:20:31.233Z,463.00
2023-04-02T08:21:31.281Z,462.00
2023-04-02T08:22:31.317Z,465.00
2023-04-02T08:23:31.390Z,467.00
2023-04-02T08:24:31.420Z,468.00
2023-04-02T08:25:31.430Z,467.00
2023-04-02T08:26:31.410Z,467.00
2023-04-02T08:27:31.414Z,467.00
2023-04-02T08:28:31.423Z,466.00
2023-04-02T08:29:31.398Z,466.00
2023-04-02T08:30:31.512Z,467.00
2023-04-02T08:31:31.407Z,466.00
2023-04-02T08:32:31.447Z,467.00
2023-04-02T08:33:31.440Z,469.00
2023-04-02T08:34:31.436Z,467.00
2023-04-02T08:35:31.486Z,467.00
2023-04-02T08:36:31.468Z,466.00
2023-04-02T08:37:31.492Z,465.00
2023-04-02T08:38:31.521Z,464.00
2023-04-02T08:39:31.558Z,462.00
2023-04-02T08:40:31.570Z,461.00
2023-04-02T08:41:31.609Z,462.00
2023-04-02T08:42:31.643Z,467.00
2023-04-02T08:43:31.674Z,469.00
2023-04-02T08:44:31.717Z,469.00
2023-04-02T08:45:31.756Z,467.00
2023-04-02T08:46:31.935Z,467.00
2023-04-02T08:47:32.724Z,467.00
2023-04-02T08:48:31.864Z,466.00
2023-04-02T08:49:31.898Z,465.00
2023-04-02T08:50:31.932Z,464.00
2023-04-02T08:51:31.973Z,464.00
2023-04-02T08:52:32.031Z,465.00
2023-04-02T08:53:32.072Z,465.00
2023-04-02T08:54:32.105Z,464.00
2023-04-02T08:55:32.201Z,464.00
2023-04-02T08:56:32.191Z,462.00
2023-04-02T08:57:32.359Z,462.00
2023-04-02T08:58:32.272Z,461.00
2023-04-02T08:59:32.324Z,460.00
2023-04-02T09:00:32.358Z,457.00
2023-04-02T09:01:32.460Z,458.00
2023-04-02T09:02:32.490Z,461.00
2023-04-02T09:03:32.498Z,461.00
2023-04-02T09:04:32.727Z,461.00
2023-04-02T09:05:32.617Z,461.00
2023-04-02T09:06:32.636Z,458.00
2023-04-02T09:07:32.697Z,459.00
2023-04-02T09:08:33.683Z,460.00
2023-04-02T09:09:33.171Z,460.00
2023-04-02T09:10:32.833Z,463.00
2023-04-02T09:11:32.881Z,461.00
2023-04-02T09:12:33.009Z,460.00
2023-04-02T09:13:32.982Z,460.00
2023-04-02T09:14:33.020Z,460.00
2023-04-02T09:15:33.279Z,460.00
2023-04-02T09:16:33.137Z,459.00
2023-04-02T09:17:42.707Z,459.00
2023-04-02T09:18:34.202Z,460.00
2023-04-02T09:19:33.121Z,459.00
2023-04-02T09:20:33.104Z,458.00
2023-04-02T09:21:33.087Z,461.00
2023-04-02T09:22:33.062Z,460.00
2023-04-02T09:23:33.056Z,459.00
2023-04-02T09:24:33.036Z,460.00
2023-04-02T09:25:33.251Z,459.00
2023-04-02T09:26:33.001Z,459.00
2023-04-02T09:27:33.024Z,457.00
2023-04-02T09:28:33.081Z,455.00
2023-04-02T09:29:33.101Z,453.00
2023-04-02T09:30:33.144Z,456.00
2023-04-02T09:31:33.181Z,458.00
2023-04-02T09:32:33.221Z,462.00
2023-04-02T09:33:33.228Z,462.00
2023-04-02T09:34:33.265Z,465.00
2023-04-02T09:35:33.326Z,464.00
2023-04-02T09:36:33.330Z,463.00
2023-04-02T09:37:33.332Z,461.00
2023-04-02T09:38:33.360Z,460.00
2023-04-02T09:39:33.380Z,459.00
2023-04-02T09:40:33.464Z,458.00
2023-04-02T09:41:35.099Z,460.00
2023-04-02T09:42:33.399Z,459.00
2023-04-02T09:43:33.387Z,461.00
2023-04-02T09:44:33.387Z,463.00
2023-04-02T09:45:33.553Z,463.00
2023-04-02T09:46:33.391Z,463.00
2023-04-02T09:47:33.333Z,461.00
2023-04-02T09:48:33.315Z,463.00
2023-04-02T09:49:33.300Z,462.00
2023-04-02T09:50:33.274Z,461.00
2023-04-02T09:51:34.214Z,462.00
2023-04-02T09:52:33.247Z,461.00
2023-04-02T09:53:33.227Z,460.00
2023-04-02T09:54:33.202Z,460.00
2023-04-02T09:55:33.337Z,459.00
2023-04-02T09:56:33.149Z,455.00
2023-04-02T09:57:33.170Z,455.00
2023-04-02T09:58:33.121Z,455.00
2023-04-02T09:59:33.112Z,455.00
2023-04-02T10:00:33.110Z,455.00
2023-04-02T10:01:33.196Z,454.00
2023-04-02T10:02:33.081Z,452.00
2023-04-02T10:03:33.104Z,454.00
2023-04-02T10:04:33.089Z,455.00
2023-04-02T10:05:40.690Z,457.00
2023-04-02T10:06:34.015Z,455.00
2023-04-02T10:07:32.990Z,455.00
2023-04-02T10:08:32.972Z,457.00
2023-04-02T10:09:32.958Z,459.00
2023-04-02T10:10:32.987Z,461.00
2023-04-02T10:11:43.776Z,460.00
2023-04-02T10:12:33.923Z,463.00
2023-04-02T10:13:32.894Z,466.00
2023-04-02T10:14:32.898Z,463.00
2023-04-02T10:15:32.944Z,463.00
2023-04-02T10:16:32.995Z,465.00
2023-04-02T10:17:32.895Z,465.00
2023-04-02T10:18:32.833Z,465.00
2023-04-02T10:19:33.693Z,466.00
2023-04-02T10:20:36.445Z,464.00
2023-04-02T10:21:33.801Z,464.00
2023-04-02T10:22:32.781Z,463.00
2023-04-02T10:23:32.757Z,461.00
2023-04-02T10:24:32.797Z,463.00
2023-04-02T10:25:32.852Z,461.00
2023-04-02T10:26:32.881Z,460.00
2023-04-02T10:27:32.916Z,461.00
2023-04-02T10:28:32.958Z,460.00
2023-04-02T10:29:33.004Z,460.00
2023-04-02T10:30:33.095Z,458.00
2023-04-02T10:31:33.082Z,459.00
2023-04-02T10:32:33.115Z,458.00
2023-04-02T10:33:33.153Z,462.00
2023-04-02T10:34:33.197Z,463.00
2023-04-02T10:35:33.300Z,463.00
2023-04-02T10:36:33.281Z,464.00
2023-04-02T10:37:33.341Z,463.00
2023-04-02T10:38:33.374Z,464.00
2023-04-02T10:39:33.412Z,464.00
2023-04-02T10:40:33.454Z,464.00
2023-04-02T10:41:33.548Z,463.00
2023-04-02T10:42:33.540Z,463.00
2023-04-02T10:43:33.601Z,463.00
2023-04-02T10:44:33.642Z,462.00
2023-04-02T10:45:33.966Z,463.00
2023-04-02T10:46:33.748Z,462.00
2023-04-02T10:47:33.855Z,463.00
2023-04-02T10:48:33.825Z,462.00
2023-04-02T10:49:33.968Z,464.00
2023-04-02T10:50:33.920Z,464.00
2023-04-02T10:51:33.973Z,460.00
2023-04-02T10:52:34.029Z,461.00
2023-04-02T10:53:34.067Z,461.00
2023-04-02T10:54:34.188Z,464.00
2023-04-02T10:55:34.463Z,464.00
2023-04-02T10:56:44.021Z,467.00
2023-04-02T10:57:35.327Z,463.00
2023-04-02T10:58:34.187Z,462.00
2023-04-02T10:59:34.210Z,459.00
2023-04-02T11:00:34.156Z,458.00
2023-04-02T11:01:34.183Z,460.00
2023-04-02T11:02:34.172Z,461.00
2023-04-02T11:03:34.147Z,464.00
2023-04-02T11:04:34.093Z,465.00
2023-04-02T11:05:34.442Z,464.00
2023-04-02T11:06:34.132Z,465.00
2023-04-02T11:07:34.198Z,467.00
2023-04-02T11:08:34.248Z,466.00
2023-04-02T11:09:34.295Z,465.00
2023-04-02T11:10:34.337Z,463.00
2023-04-02T11:11:34.394Z,460.00
2023-04-02T11:12:36.602Z,461.00
2023-04-02T11:13:35.419Z,459.00
2023-04-02T11:14:34.416Z,457.00
2023-04-02T11:15:34.632Z,457.00
2023-04-02T11:17:34.390Z,456.00
2023-04-02T11:18:34.376Z,454.00
2023-04-02T11:19:34.330Z,453.00
2023-04-02T11:20:34.303Z,455.00
2023-04-02T11:21:34.927Z,457.00
2023-04-02T11:22:34.365Z,455.00
2023-04-02T11:23:34.434Z,455.00
2023-04-02T11:24:34.492Z,453.00
2023-04-02T11:25:34.636Z,456.00
2023-04-02T11:26:34.563Z,455.00
2023-04-02T11:27:34.612Z,457.00
2023-04-02T11:28:34.659Z,458.00
2023-04-02T11:29:35.225Z,461.00
2023-04-02T11:30:34.771Z,463.00
2023-04-02T11:31:34.824Z,463.00
2023-04-02T11:32:34.906Z,460.00
2023-04-02T11:33:39.945Z,455.00
2023-04-02T11:34:35.924Z,455.00
2023-04-02T11:35:35.203Z,454.00
2023-04-02T11:36:34.879Z,453.00
2023-04-02T11:37:34.882Z,452.00
2023-04-02T11:38:34.850Z,452.00
2023-04-02T11:39:34.852Z,454.00
2023-04-02T11:40:34.821Z,452.00
2023-04-02T11:41:34.806Z,452.00
2023-04-02T11:42:34.788Z,456.00
2023-04-02T11:43:34.828Z,454.00
2023-04-02T11:44:34.883Z,456.00
2023-04-02T11:45:43.103Z,459.00
2023-04-02T11:46:35.942Z,459.00
2023-04-02T11:47:34.925Z,458.00
2023-04-02T11:48:34.885Z,458.00
2023-04-02T11:49:34.881Z,458.00
2023-04-02T11:50:34.867Z,454.00
2023-04-02T11:51:34.838Z,452.00
2023-04-02T11:52:34.830Z,452.00
2023-04-02T11:53:34.809Z,453.00
2023-04-02T11:54:34.801Z,452.00
2023-04-02T11:55:35.234Z,453.00
2023-04-02T11:56:34.867Z,456.00
2023-04-02T11:57:34.971Z,454.00
2023-04-02T11:58:34.976Z,457.00
2023-04-02T11:59:35.033Z,455.00
2023-04-02T12:00:35.183Z,457.00
2023-04-02T12:01:35.131Z,457.00
2023-04-02T12:02:35.230Z,457.00
2023-04-02T12:03:35.207Z,456.00
2023-04-02T12:04:35.247Z,455.00
2023-04-02T12:05:35.350Z,456.00
2023-04-02T12:06:35.312Z,455.00
2023-04-02T12:07:35.356Z,456.00
2023-04-02T12:08:44.278Z,457.00
2023-04-02T12:09:36.399Z,458.00
2023-04-02T12:10:35.383Z,458.00
2023-04-02T12:11:35.372Z,456.00
2023-04-02T12:12:35.380Z,455.00
2023-04-02T12:13:35.353Z,456.00
2023-04-02T12:14:35.383Z,459.00
2023-04-02T12:15:35.908Z,460.00
2023-04-02T12:16:36.264Z,462.00
2023-04-02T12:17:35.358Z,460.00
2023-04-02T12:18:35.372Z,463.00
2023-04-02T12:19:35.426Z,463.00
2023-04-02T12:20:35.664Z,462.00
2023-04-02T12:21:35.553Z,463.00
2023-04-02T12:22:35.591Z,462.00
2023-04-02T12:23:35.666Z,461.00
2023-04-02T12:24:35.709Z,461.00
2023-04-02T12:25:35.773Z,462.00
2023-04-02T12:26:35.841Z,461.00
2023-04-02T12:27:35.890Z,463.00
2023-04-02T12:28:35.942Z,464.00
2023-04-02T12:29:36.045Z,462.00